createdAt,value
2018-09-27T00:00:55.528Z,8.20
2018-09-27T00:05:57.657Z,8.10
2018-09-27T00:10:59.786Z,8.00
2018-09-27T00:16:01.922Z,8.00
2018-09-27T00:21:04.090Z,7.90
2018-09-27T00:26:06.794Z,7.90
2018-09-27T00:31:08.986Z,7.80
2018-09-27T00:36:11.146Z,7.70
2018-09-27T00:41:13.285Z,7.60
2018-09-27T00:46:15.425Z,7.70
2018-09-27T00:51:17.561Z,7.60
2018-09-27T00:56:19.677Z,7.60
2018-09-27T01:01:21.831Z,7.50
2018-09-27T01:06:23.949Z,7.40
2018-09-27T01:11:26.073Z,7.40
2018-09-27T01:16:28.208Z,7.40
2018-09-27T01:21:30.745Z,7.30
2018-09-27T01:26:32.882Z,7.30
2018-09-27T01:31:35.022Z,7.20
2018-09-27T01:36:37.149Z,7.20
2018-09-27T01:41:39.486Z,7.20
2018-09-27T01:46:41.626Z,7.20
2018-09-27T01:51:43.757Z,7.00
2018-09-27T01:56:45.886Z,7.00
2018-09-27T02:01:48.006Z,6.90
2018-09-27T02:06:50.142Z,6.90
2018-09-27T02:11:52.281Z,6.90
2018-09-27T02:16:54.397Z,6.80
2018-09-27T02:21:56.548Z,6.80
2018-09-27T02:26:58.685Z,6.80
2018-09-27T02:32:00.815Z,6.80
2018-09-27T02:42:10.925Z,6.60
2018-09-27T02:47:13.041Z,6.60
2018-09-27T02:52:15.190Z,6.50
2018-09-27T02:57:17.321Z,6.50
2018-09-27T03:02:19.454Z,6.50
2018-09-27T03:07:21.590Z,6.50
2018-09-27T03:12:23.714Z,6.50
2018-09-27T03:17:25.869Z,6.40
2018-09-27T03:22:28.022Z,6.30
2018-09-27T03:27:30.173Z,6.30
2018-09-27T03:32:32.306Z,6.30
2018-09-27T03:37:34.428Z,6.40
2018-09-27T03:42:36.565Z,6.40
2018-09-27T03:47:38.712Z,6.40
2018-09-27T03:52:40.852Z,6.40
2018-09-27T03:57:42.974Z,6.30
2018-09-27T04:02:45.110Z,6.20
2018-09-27T04:07:47.258Z,6.10
2018-09-27T04:12:49.397Z,6.10
2018-09-27T04:17:53.562Z,6.00
2018-09-27T04:22:55.758Z,6.00
2018-09-27T04:27:57.932Z,6.00
2018-09-27T04:33:00.074Z,6.00
2018-09-27T04:38:02.269Z,5.90
2018-09-27T04:43:04.446Z,5.90
2018-09-27T04:48:06.593Z,5.70
2018-09-27T04:53:08.720Z,5.70
2018-09-27T04:58:10.886Z,5.80
2018-09-27T05:03:13.015Z,5.80
2018-09-27T05:08:15.146Z,5.80
2018-09-27T05:13:17.285Z,5.70
2018-09-27T05:18:19.411Z,5.70
2018-09-27T05:23:21.562Z,5.70
2018-09-27T05:28:23.727Z,5.70
2018-09-27T05:33:25.905Z,5.70
2018-09-27T05:38:28.098Z,5.80
2018-09-27T05:43:30.437Z,5.70
2018-09-27T05:48:32.578Z,5.70
2018-09-27T05:53:34.705Z,5.80
2018-09-27T05:58:36.858Z,6.00
2018-09-27T06:03:39.046Z,6.50
2018-09-27T06:08:41.150Z,7.00
2018-09-27T06:13:43.274Z,7.30
2018-09-27T06:18:45.414Z,7.70
2018-09-27T06:23:47.546Z,7.90
2018-09-27T06:28:49.901Z,8.50
2018-09-27T06:33:52.029Z,9.00
2018-09-27T06:38:54.157Z,9.50
2018-09-27T06:43:56.324Z,10.00
2018-09-27T06:48:58.457Z,10.40
2018-09-27T06:54:00.601Z,10.90
2018-09-27T06:59:02.745Z,11.40
2018-09-27T07:04:04.882Z,11.80
2018-09-27T07:09:08.714Z,12.10
2018-09-27T07:14:11.090Z,12.80
2018-09-27T07:19:13.237Z,13.20
2018-09-27T07:24:15.365Z,13.70
2018-09-27T07:29:17.515Z,14.10
2018-09-27T07:34:19.715Z,14.60
2018-09-27T07:39:21.873Z,15.20
2018-09-27T07:44:24.050Z,15.50
2018-09-27T07:49:26.162Z,16.20
2018-09-27T07:54:28.381Z,16.20
2018-09-27T07:59:30.466Z,17.00
2018-09-27T08:04:32.629Z,17.40
2018-09-27T08:09:34.802Z,17.60
2018-09-27T08:14:36.996Z,18.20
2018-09-27T08:19:39.120Z,16.10
2018-09-27T08:24:41.258Z,18.60
2018-09-27T08:29:43.455Z,18.50
2018-09-27T08:34:45.570Z,18.60
2018-09-27T08:39:47.734Z,19.70
2018-09-27T08:44:50.029Z,19.50
2018-09-27T08:49:52.063Z,19.90
2018-09-27T08:54:54.261Z,20.30
2018-09-27T08:59:56.394Z,20.60
2018-09-27T09:04:58.558Z,19.70
2018-09-27T09:10:00.727Z,21.50
2018-09-27T09:15:02.919Z,20.60
2018-09-27T09:20:05.406Z,21.00
2018-09-27T09:25:07.586Z,21.60
2018-09-27T09:30:09.734Z,22.90
2018-09-27T09:35:11.928Z,22.40
2018-09-27T09:40:14.104Z,22.70
2018-09-27T09:45:16.328Z,22.20
2018-09-27T09:50:18.481Z,23.50
2018-09-27T09:55:20.642Z,23.90
2018-09-27T10:00:22.811Z,23.30
2018-09-27T10:05:24.925Z,24.00
2018-09-27T10:10:27.078Z,22.50
2018-09-27T10:15:29.227Z,21.70
2018-09-27T10:20:31.379Z,21.60
2018-09-27T10:25:33.521Z,21.50
2018-09-27T10:30:35.658Z,21.10
2018-09-27T10:35:39.402Z,21.20
2018-09-27T10:40:42.027Z,21.10
2018-09-27T10:45:44.150Z,20.60
2018-09-27T10:50:46.286Z,19.60
2018-09-27T10:55:48.462Z,19.90
2018-09-27T11:00:50.618Z,20.30
2018-09-27T11:05:52.770Z,20.40
2018-09-27T11:10:54.921Z,20.60
2018-09-27T11:15:57.054Z,20.80
2018-09-27T11:20:59.206Z,20.60
2018-09-27T11:26:01.341Z,20.50
2018-09-27T11:31:09.258Z,20.60
2018-09-27T11:36:11.621Z,20.50
2018-09-27T11:41:13.742Z,20.40
2018-09-27T11:46:15.902Z,20.60
2018-09-27T11:51:18.105Z,20.50
2018-09-27T11:56:20.253Z,20.50
2018-09-27T12:01:22.426Z,20.50
2018-09-27T12:06:24.670Z,20.70
2018-09-27T12:11:26.773Z,20.80
2018-09-27T12:16:28.917Z,20.90
2018-09-27T12:21:31.054Z,20.80
2018-09-27T12:26:33.205Z,21.00
2018-09-27T12:31:35.337Z,21.00
2018-09-27T12:36:37.569Z,21.00
2018-09-27T12:41:39.684Z,21.20
2018-09-27T12:46:41.871Z,21.30
2018-09-27T12:51:44.119Z,21.20
2018-09-27T12:56:46.166Z,21.20
2018-09-27T13:01:48.395Z,21.40
2018-09-27T13:06:50.496Z,21.60
2018-09-27T13:11:52.664Z,21.70
2018-09-27T13:16:54.821Z,21.70
2018-09-27T13:21:56.974Z,21.70
2018-09-27T13:26:59.121Z,22.00
2018-09-27T13:32:01.299Z,22.00
2018-09-27T13:37:03.471Z,22.00
2018-09-27T13:42:05.602Z,22.10
2018-09-27T13:47:07.756Z,22.10
2018-09-27T13:52:09.920Z,22.30
2018-09-27T13:57:12.102Z,22.20
2018-09-27T14:02:14.218Z,22.30
2018-09-27T14:07:16.352Z,22.30
2018-09-27T14:12:18.510Z,22.50
2018-09-27T14:17:20.633Z,22.50
2018-09-27T14:22:22.818Z,22.30
2018-09-27T14:27:24.999Z,22.40
2018-09-27T14:32:27.126Z,22.50
2018-09-27T14:37:29.648Z,22.50
2018-09-27T14:42:31.832Z,22.40
2018-09-27T14:47:34.009Z,22.40
2018-09-27T14:52:36.165Z,22.50
2018-09-27T14:57:38.277Z,22.40
2018-09-27T15:02:40.426Z,22.30
2018-09-27T15:07:42.946Z,22.30
2018-09-27T15:12:45.169Z,22.20
2018-09-27T15:17:47.268Z,22.20
2018-09-27T15:22:49.409Z,22.20
2018-09-27T15:27:51.576Z,22.10
2018-09-27T15:32:53.718Z,22.20
2018-09-27T15:37:55.924Z,22.10
2018-09-27T15:42:58.070Z,22.00
2018-09-27T15:48:00.215Z,22.00
2018-09-27T15:53:02.374Z,21.90
2018-09-27T15:58:04.787Z,21.90
2018-09-27T16:03:06.957Z,21.90
2018-09-27T16:08:09.090Z,21.80
2018-09-27T16:13:11.260Z,21.80
2018-09-27T16:18:13.401Z,21.70
2018-09-27T16:23:15.550Z,21.60
2018-09-27T16:28:17.702Z,21.40
2018-09-27T16:33:20.029Z,21.40
2018-09-27T16:38:22.153Z,21.40
2018-09-27T16:43:24.295Z,21.40
2018-09-27T16:48:26.415Z,21.20
2018-09-27T16:53:28.613Z,21.10
2018-09-27T16:58:30.744Z,21.00
2018-09-27T17:03:32.929Z,20.80
2018-09-27T17:08:35.073Z,20.70
2018-09-27T17:13:37.234Z,20.50
2018-09-27T17:18:39.435Z,20.10
2018-09-27T17:23:41.575Z,19.70
2018-09-27T17:28:43.697Z,19.40
2018-09-27T17:33:45.830Z,19.20
2018-09-27T17:38:47.970Z,19.00
2018-09-27T17:43:50.119Z,18.80
2018-09-27T17:48:52.250Z,18.70
2018-09-27T17:53:54.394Z,18.40
2018-09-27T17:58:56.631Z,18.30
2018-09-27T18:03:58.752Z,18.00
2018-09-27T18:09:00.886Z,17.90
2018-09-27T18:14:03.050Z,17.80
2018-09-27T18:19:05.366Z,17.60
2018-09-27T18:24:07.729Z,17.40
2018-09-27T18:29:09.906Z,17.10
2018-09-27T18:34:12.062Z,16.90
2018-09-27T18:39:14.205Z,16.50
2018-09-27T18:44:17.154Z,16.40
2018-09-27T18:49:19.294Z,16.50
2018-09-27T18:54:21.438Z,16.30
2018-09-27T18:59:23.609Z,16.20
2018-09-27T19:04:25.758Z,15.90
2018-09-27T19:09:27.897Z,16.00
2018-09-27T19:14:30.254Z,15.80
2018-09-27T19:19:32.451Z,15.60
2018-09-27T19:24:34.715Z,15.40
2018-09-27T19:29:37.051Z,15.20
2018-09-27T19:34:39.198Z,15.10
2018-09-27T19:39:41.346Z,15.00
2018-09-27T19:44:43.486Z,14.90
2018-09-27T19:49:45.630Z,14.80
2018-09-27T19:54:47.774Z,14.70
2018-09-27T19:59:49.923Z,14.60
2018-09-27T20:04:52.082Z,14.40
2018-09-27T20:09:54.238Z,14.50
2018-09-27T20:14:56.383Z,14.40
2018-09-27T20:19:58.529Z,14.30
2018-09-27T20:25:00.658Z,14.10
2018-09-27T20:30:02.822Z,14.00
2018-09-27T20:35:04.990Z,13.90
2018-09-27T20:40:07.149Z,13.90
2018-09-27T20:45:16.452Z,13.90
2018-09-27T20:50:18.581Z,13.90
2018-09-27T20:55:20.726Z,13.80
2018-09-27T21:00:29.923Z,13.80
2018-09-27T21:05:32.133Z,13.80
2018-09-27T21:10:34.257Z,13.90
2018-09-27T21:15:36.433Z,13.80
2018-09-27T21:20:38.534Z,13.90
2018-09-27T21:25:40.686Z,14.00
2018-09-27T21:30:42.809Z,14.00
2018-09-27T21:35:44.981Z,14.20
2018-09-27T21:40:47.128Z,14.20
2018-09-27T21:45:49.253Z,14.10
2018-09-27T21:50:51.386Z,14.00
2018-09-27T21:55:53.517Z,14.00
2018-09-27T22:00:55.651Z,13.90
2018-09-27T22:05:57.779Z,13.80
2018-09-27T22:10:59.904Z,13.70
2018-09-27T22:16:02.038Z,13.60
2018-09-27T22:21:04.189Z,13.50
2018-09-27T22:26:06.346Z,13.20
2018-09-27T22:31:08.493Z,13.10
2018-09-27T22:36:10.639Z,13.00
2018-09-27T22:41:12.814Z,12.80
2018-09-27T22:46:15.114Z,12.70
2018-09-27T22:51:17.282Z,12.50
2018-09-27T22:56:19.450Z,12.50
2018-09-27T23:01:28.402Z,12.50
2018-09-27T23:06:30.522Z,12.30
2018-09-27T23:11:32.789Z,12.30
2018-09-27T23:16:34.910Z,12.20
2018-09-27T23:21:37.041Z,12.10
2018-09-27T23:26:39.163Z,12.20
2018-09-27T23:31:41.310Z,12.10
2018-09-27T23:36:43.470Z,12.00
2018-09-27T23:41:45.610Z,12.00
2018-09-27T23:46:47.758Z,11.90
2018-09-27T23:51:49.877Z,11.90
2018-09-27T23:56:52.018Z,11.90
